Time;durP1;ratioP1;P1;durP2;ratioP2;P2;SDS_P1;SDS_P2;PMS_P1;PMS_P2;Temp;Humidity;BMP_temperature;BMP_pressure;BME280_temperature;BME280_humidity;BME280_pressure;Samples;Min_cycle;Max_cycle;Signal;HPM_P1;HPM_P2
2022/03/22 00:00:10;;;;;;;6.63;5.97;;;5.60;99.90;;;;;;4998622;28;20220;-87
2022/03/22 00:02:36;;;;;;;11.00;7.43;;;5.60;99.90;;;;;;4982826;28;20684;-86
2022/03/22 00:05:03;;;;;;;10.80;5.77;;;5.60;99.90;;;;;;4983011;28;20191;-85
2022/03/22 00:07:30;;;;;;;7.90;6.37;;;5.60;99.90;;;;;;4990078;28;20293;-86
2022/03/22 00:09:56;;;;;;;8.77;5.30;;;5.60;99.90;;;;;;4983771;28;20212;-87
2022/03/22 00:12:22;;;;;;;10.80;9.20;;;5.60;99.90;;;;;;4980991;28;20571;-86
2022/03/22 00:14:48;;;;;;;10.97;8.13;;;5.60;99.90;;;;;;4998311;28;20215;-88
2022/03/22 00:17:14;;;;;;;9.97;6.80;;;5.70;99.90;;;;;;4980797;28;20227;-88
2022/03/22 00:19:40;;;;;;;8.63;6.97;;;5.60;99.90;;;;;;4984394;28;20230;-86
2022/03/22 00:22:06;;;;;;;11.70;8.13;;;5.70;99.90;;;;;;4979703;28;20246;-86
2022/03/22 00:24:32;;;;;;;12.10;6.97;;;5.60;99.90;;;;;;4984989;28;20306;-86
2022/03/22 00:26:57;;;;;;;13.87;6.97;;;5.60;99.90;;;;;;5001381;28;20227;-85
2022/03/22 00:29:23;;;;;;;12.57;5.87;;;5.60;99.90;;;;;;4982458;28;20224;-88
2022/03/22 00:31:49;;;;;;;13.67;7.70;;;5.70;99.90;;;;;;4981932;28;20227;-86
2022/03/22 00:34:15;;;;;;;9.30;6.63;;;5.70;99.90;;;;;;4966219;28;20270;-86
2022/03/22 00:36:41;;;;;;;11.93;8.13;;;5.60;99.90;;;;;;4983817;28;20282;-85
2022/03/22 00:39:07;;;;;;;11.60;7.40;;;5.50;99.90;;;;;;4981806;28;20315;-86
2022/03/22 00:41:33;;;;;;;8.13;6.13;;;5.50;99.90;;;;;;5001128;28;20222;-87
2022/03/22 00:43:59;;;;;;;10.33;7.93;;;5.40;99.90;;;;;;4982468;28;20867;-85
2022/03/22 00:46:25;;;;;;;12.40;7.17;;;5.40;99.90;;;;;;4980855;28;20302;-86
2022/03/22 00:48:51;;;;;;;14.90;7.20;;;5.40;99.90;;;;;;4981627;28;20676;-88
2022/03/22 00:51:16;;;;;;;10.27;7.10;;;5.40;99.90;;;;;;4981837;28;20224;-88
2022/03/22 00:53:45;;;;;;;11.13;6.23;;;5.40;99.90;;;;;;4981716;28;20224;-86
2022/03/22 00:56:12;;;;;;;6.67;5.73;;;5.40;99.90;;;;;;5000196;28;20719;-86
2022/03/22 00:58:38;;;;;;;10.60;7.17;;;5.40;99.90;;;;;;4999967;28;20188;-86
2022/03/22 01:01:04;;;;;;;12.23;5.83;;;5.30;99.90;;;;;;4979376;28;20218;-86
2022/03/22 01:03:29;;;;;;;11.17;6.90;;;5.30;99.90;;;;;;4984016;28;20212;-86
2022/03/22 01:05:56;;;;;;;11.00;7.30;;;5.30;99.90;;;;;;4981237;28;20685;-86
2022/03/22 01:08:23;;;;;;;11.07;6.50;;;5.30;99.90;;;;;;4979679;28;20216;-88
2022/03/22 01:10:52;;;;;;;8.97;7.03;;;5.30;99.90;;;;;;4982362;28;20190;-87
2022/03/22 01:13:27;;;;;;;8.53;7.63;;;5.30;99.90;;;;;;4982438;28;20203;-85
2022/03/22 01:15:53;;;;;;;12.10;6.50;;;5.20;99.90;;;;;;4992871;28;20222;-86
2022/03/22 01:18:20;;;;;;;12.63;7.40;;;5.20;99.90;;;;;;4997959;28;20216;-87
2022/03/22 01:20:49;;;;;;;11.33;7.83;;;5.10;99.90;;;;;;4981538;28;20265;-86
2022/03/22 01:23:15;;;;;;;8.40;7.00;;;5.10;99.90;;;;;;4998285;28;20207;-86
2022/03/22 01:25:43;;;;;;;9.40;6.80;;;5.10;99.90;;;;;;4997827;28;20241;-87
2022/03/22 01:28:11;;;;;;;13.80;7.97;;;5.10;99.90;;;;;;4979921;28;20673;-87
2022/03/22 01:30:38;;;;;;;10.73;6.50;;;5.00;99.90;;;;;;4996939;28;20216;-88
2022/03/22 01:33:05;;;;;;;19.90;6.97;;;5.00;99.90;;;;;;4997556;28;20215;-86
2022/03/22 01:35:32;;;;;;;14.87;7.47;;;5.10;99.90;;;;;;5014917;28;20223;-86
2022/03/22 01:37:58;;;;;;;13.83;6.97;;;5.10;99.90;;;;;;4978476;28;20693;-87
2022/03/22 01:40:26;;;;;;;13.47;7.07;;;5.10;99.90;;;;;;4980373;28;20191;-86
2022/03/22 01:42:53;;;;;;;9.53;8.60;;;5.10;99.90;;;;;;4996612;28;20586;-87
2022/03/22 01:45:18;;;;;;;14.23;8.30;;;5.00;99.90;;;;;;4996853;28;20370;-87
2022/03/22 01:47:46;;;;;;;11.17;7.40;;;5.00;99.90;;;;;;4981460;28;20306;-88
2022/03/22 01:50:15;;;;;;;11.40;6.23;;;5.00;99.90;;;;;;4980046;28;20216;-86
2022/03/22 01:52:43;;;;;;;8.90;7.53;;;5.00;99.90;;;;;;4996532;28;20198;-87
2022/03/22 01:55:14;;;;;;;9.00;6.60;;;5.00;99.90;;;;;;4980356;28;20386;-89
2022/03/22 01:57:40;;;;;;;9.87;8.23;;;4.80;99.90;;;;;;5006512;28;20691;-86
2022/03/22 02:00:09;;;;;;;10.97;8.07;;;4.80;99.90;;;;;;4996535;28;20222;-87
2022/03/22 02:08:10;;;;;;;12.60;6.60;;;4.90;99.90;;;;;;4996402;28;20192;-86
2022/03/22 02:10:37;;;;;;;8.57;6.93;;;4.90;99.90;;;;;;4981069;28;20207;-87
2022/03/22 02:13:04;;;;;;;6.97;6.37;;;5.00;99.90;;;;;;4998755;28;20278;-89
2022/03/22 02:15:30;;;;;;;19.53;9.20;;;5.00;99.90;;;;;;4997875;28;20599;-87
2022/03/22 02:17:56;;;;;;;14.47;7.80;;;5.00;99.90;;;;;;4980126;28;20239;-86
2022/03/22 02:20:22;;;;;;;11.90;7.43;;;5.00;99.90;;;;;;4981525;28;20243;-86
2022/03/22 02:22:59;;;;;;;14.37;10.90;;;5.10;99.90;;;;;;4980456;28;20200;-85
2022/03/22 02:25:25;;;;;;;8.03;6.63;;;5.10;99.90;;;;;;4995359;28;20211;-87
2022/03/22 02:27:54;;;;;;;12.00;8.30;;;5.20;99.90;;;;;;4983037;28;20288;-87
2022/03/22 02:30:21;;;;;;;11.23;8.70;;;5.20;99.90;;;;;;5001119;28;20220;-87
2022/03/22 02:32:54;;;;;;;11.37;6.83;;;5.20;99.90;;;;;;4983643;28;20228;-86
2022/03/22 02:35:22;;;;;;;13.10;8.57;;;5.20;99.90;;;;;;5000185;28;20241;-87
2022/03/22 02:37:48;;;;;;;6.53;5.97;;;5.20;99.90;;;;;;4987300;28;20319;-86
2022/03/22 02:40:15;;;;;;;16.40;11.30;;;5.20;99.90;;;;;;5001923;28;20211;-86
2022/03/22 02:42:50;;;;;;;14.63;7.83;;;5.20;99.90;;;;;;5000921;28;20735;-88
2022/03/22 02:45:18;;;;;;;8.70;6.10;;;5.20;99.90;;;;;;4999545;28;20214;-86
2022/03/22 02:47:44;;;;;;;15.30;8.57;;;5.20;99.90;;;;;;4984345;28;20231;-86
2022/03/22 02:50:11;;;;;;;14.23;8.60;;;5.20;99.90;;;;;;4999838;28;20732;-85
2022/03/22 02:52:37;;;;;;;20.33;8.47;;;5.20;99.90;;;;;;5002452;28;20199;-86
2022/03/22 02:55:06;;;;;;;18.20;9.47;;;5.20;99.90;;;;;;5001933;28;20220;-86
2022/03/22 02:57:33;;;;;;;12.87;9.20;;;5.20;99.90;;;;;;4983175;28;20222;-86
2022/03/22 02:59:59;;;;;;;12.07;7.80;;;5.20;99.90;;;;;;4984792;28;20226;-87
2022/03/22 03:02:24;;;;;;;10.03;8.67;;;5.20;99.90;;;;;;4984012;28;20215;-86
2022/03/22 03:04:50;;;;;;;10.87;8.07;;;5.30;99.90;;;;;;4983055;28;20191;-87
2022/03/22 03:07:16;;;;;;;16.70;8.57;;;5.30;99.90;;;;;;4982474;28;20207;-87
2022/03/22 03:09:42;;;;;;;11.40;6.47;;;5.30;99.90;;;;;;4987495;28;20223;-87
2022/03/22 03:12:08;;;;;;;8.43;7.30;;;5.30;99.90;;;;;;4998877;28;20676;-86
2022/03/22 03:14:40;;;;;;;11.63;10.20;;;5.20;99.90;;;;;;4985199;28;20219;-87
2022/03/22 03:17:08;;;;;;;13.93;8.97;;;5.20;99.90;;;;;;4984880;28;20297;-88
2022/03/22 03:19:34;;;;;;;13.57;9.80;;;5.20;99.90;;;;;;5009330;28;20180;-88
2022/03/22 03:22:02;;;;;;;13.67;7.97;;;5.20;99.90;;;;;;4984921;28;20219;-87
2022/03/22 03:24:28;;;;;;;16.13;7.70;;;5.20;99.90;;;;;;4983738;28;20696;-87
2022/03/22 03:26:54;;;;;;;8.70;7.90;;;5.20;99.90;;;;;;5000208;28;20604;-87
2022/03/22 03:29:20;;;;;;;12.27;8.57;;;5.20;99.90;;;;;;4982848;28;20219;-86
2022/03/22 03:31:47;;;;;;;11.87;6.67;;;5.20;99.90;;;;;;4983472;28;20215;-87
2022/03/22 03:34:13;;;;;;;14.07;8.50;;;5.20;99.90;;;;;;5000063;28;20219;-86
2022/03/22 03:36:38;;;;;;;13.53;7.63;;;5.20;99.90;;;;;;4984084;28;21098;-87
2022/03/22 03:39:04;;;;;;;14.93;11.07;;;5.30;99.90;;;;;;4983633;28;20230;-87
2022/03/22 03:47:10;;;;;;;15.70;8.47;;;5.40;99.90;;;;;;5000767;28;20206;-88
2022/03/22 03:49:41;;;;;;;11.57;6.93;;;5.40;99.90;;;;;;4985364;28;20180;-86
2022/03/22 03:52:10;;;;;;;11.57;8.40;;;5.40;99.90;;;;;;5007528;28;20695;-86
2022/03/22 03:54:37;;;;;;;13.57;9.10;;;5.30;99.90;;;;;;5000155;28;20580;-86
2022/03/22 03:57:03;;;;;;;13.20;8.90;;;5.30;99.90;;;;;;4996392;28;20212;-87
2022/03/22 03:59:29;;;;;;;11.67;8.53;;;5.30;99.90;;;;;;4997315;28;20215;-87
2022/03/22 04:01:55;;;;;;;8.67;7.67;;;5.30;99.90;;;;;;4983061;28;20192;-86
2022/03/22 04:04:21;;;;;;;15.70;7.90;;;5.30;99.90;;;;;;4983825;28;20290;-86
2022/03/22 04:06:47;;;;;;;15.77;9.67;;;5.30;99.90;;;;;;4981712;28;20853;-86
2022/03/22 04:09:16;;;;;;;14.47;9.57;;;5.30;99.90;;;;;;4984345;28;20310;-86
2022/03/22 04:11:43;;;;;;;14.00;8.47;;;5.20;99.90;;;;;;4998780;28;21013;-86
2022/03/22 04:14:09;;;;;;;12.30;9.00;;;5.30;99.90;;;;;;5000540;28;20667;-87
2022/03/22 04:16:36;;;;;;;8.67;6.90;;;5.20;99.90;;;;;;4984659;28;20239;-86
2022/03/22 04:19:05;;;;;;;17.63;9.10;;;5.30;99.90;;;;;;4990243;28;20227;-86
2022/03/22 04:21:34;;;;;;;26.63;9.93;;;5.30;99.90;;;;;;5014334;28;20250;-86
2022/03/22 04:24:05;;;;;;;10.63;8.47;;;5.40;99.90;;;;;;4997241;28;20312;-86
2022/03/22 04:26:35;;;;;;;12.87;8.60;;;5.40;99.90;;;;;;4983771;28;20258;-86
2022/03/22 04:34:32;;;;;;;13.97;8.53;;;5.20;99.90;;;;;;4997640;28;20212;-86
2022/03/22 04:36:59;;;;;;;11.13;9.03;;;5.20;99.90;;;;;;4964171;28;20216;-88
2022/03/22 04:39:26;;;;;;;15.57;11.70;;;5.20;99.90;;;;;;4996869;28;20596;-86
2022/03/22 04:41:53;;;;;;;15.17;10.47;;;5.20;99.90;;;;;;4998392;28;20731;-86
2022/03/22 04:44:19;;;;;;;14.83;10.07;;;5.20;99.90;;;;;;4999497;28;20659;-87
2022/03/22 04:46:45;;;;;;;13.63;8.70;;;5.20;99.90;;;;;;4985157;28;20681;-86
2022/03/22 04:49:11;;;;;;;11.80;8.80;;;5.10;99.90;;;;;;4998471;28;20246;-89
2022/03/22 04:57:11;;;;;;;9.47;5.73;;;4.90;99.90;;;;;;4965121;28;20323;-87
2022/03/22 04:59:36;;;;;;;10.57;7.87;;;4.90;99.90;;;;;;4983161;28;20216;-87
2022/03/22 05:02:02;;;;;;;13.13;10.03;;;5.00;99.90;;;;;;4988726;28;20246;-86
2022/03/22 05:04:28;;;;;;;21.37;6.87;;;5.00;99.90;;;;;;4983578;28;20212;-86
2022/03/22 05:06:54;;;;;;;11.93;8.07;;;4.90;99.90;;;;;;4981303;28;20259;-86
2022/03/22 05:09:22;;;;;;;10.77;5.70;;;4.90;99.90;;;;;;4982572;28;20250;-86
2022/03/22 05:11:49;;;;;;;10.63;8.00;;;4.70;99.90;;;;;;5001385;28;20215;-86
2022/03/22 05:14:15;;;;;;;9.43;7.67;;;4.70;99.90;;;;;;4996728;28;20239;-86
2022/03/22 05:16:41;;;;;;;9.10;6.60;;;4.70;99.90;;;;;;4979760;28;20260;-87
2022/03/22 05:19:06;;;;;;;11.00;8.40;;;4.60;99.90;;;;;;4979385;28;20234;-88
2022/03/22 05:21:32;;;;;;;9.80;8.43;;;4.60;99.90;;;;;;4981709;28;20230;-86
2022/03/22 05:23:59;;;;;;;8.23;5.63;;;4.70;99.90;;;;;;4995827;28;20278;-85
2022/03/22 05:26:27;;;;;;;13.10;8.67;;;4.60;99.90;;;;;;4980920;28;20318;-86
2022/03/22 05:28:54;;;;;;;12.63;8.53;;;4.60;99.90;;;;;;4983172;28;20192;-86
2022/03/22 05:31:23;;;;;;;11.50;7.77;;;4.60;99.90;;;;;;4978274;28;20648;-87
2022/03/22 05:33:49;;;;;;;11.63;7.57;;;4.50;99.90;;;;;;4997828;28;20221;-87
2022/03/22 05:36:16;;;;;;;8.77;7.00;;;4.60;99.90;;;;;;4981615;28;20310;-87
2022/03/22 05:38:42;;;;;;;16.47;9.97;;;4.60;99.90;;;;;;4979306;28;20223;-85
2022/03/22 05:41:08;;;;;;;12.87;10.53;;;4.70;99.90;;;;;;4986052;28;20199;-84
2022/03/22 05:43:35;;;;;;;17.40;10.70;;;4.80;99.90;;;;;;4981781;28;20188;-88
2022/03/22 05:46:04;;;;;;;13.50;10.97;;;4.80;99.90;;;;;;4996674;28;20577;-86
2022/03/22 05:48:31;;;;;;;11.90;8.40;;;4.80;99.90;;;;;;4982960;28;20230;-86
2022/03/22 05:50:57;;;;;;;14.43;8.20;;;4.80;99.90;;;;;;4978089;28;20302;-85
2022/03/22 05:53:23;;;;;;;12.37;8.80;;;4.90;99.90;;;;;;4998057;28;20212;-84
2022/03/22 05:55:49;;;;;;;15.37;8.97;;;5.00;99.90;;;;;;4984423;28;20187;-86
2022/03/22 05:58:15;;;;;;;11.10;9.97;;;5.10;99.90;;;;;;4994421;28;20231;-86
2022/03/22 06:00:41;;;;;;;14.57;9.47;;;5.20;99.90;;;;;;4997368;28;20218;-85
2022/03/22 06:03:07;;;;;;;13.87;11.63;;;5.30;99.90;;;;;;5002955;28;20230;-86
2022/03/22 06:05:34;;;;;;;11.73;7.50;;;5.40;99.90;;;;;;4983728;28;20242;-85
2022/03/22 06:08:00;;;;;;;13.77;9.17;;;5.40;99.90;;;;;;5003111;28;20260;-85
2022/03/22 06:10:28;;;;;;;11.50;8.03;;;5.70;99.90;;;;;;4983996;28;20211;-85
2022/03/22 06:12:56;;;;;;;14.13;12.10;;;5.80;99.90;;;;;;4983694;28;20215;-88
2022/03/22 06:15:27;;;;;;;14.37;9.77;;;6.00;99.90;;;;;;5016448;28;20223;-85
2022/03/22 06:17:57;;;;;;;15.23;10.40;;;6.20;99.90;;;;;;4983172;28;20234;-84
2022/03/22 06:20:33;;;;;;;17.67;13.13;;;6.30;99.90;;;;;;5015863;28;20227;-85
2022/03/22 06:23:00;;;;;;;19.47;11.50;;;6.50;99.90;;;;;;5002551;28;20176;-85
2022/03/22 06:25:27;;;;;;;21.50;11.47;;;6.60;99.90;;;;;;5001480;28;20558;-86
2022/03/22 06:27:54;;;;;;;14.73;11.37;;;6.80;99.90;;;;;;4985667;28;20239;-88
2022/03/22 06:30:20;;;;;;;17.80;12.63;;;7.20;99.90;;;;;;5000014;28;20228;-86
2022/03/22 06:32:47;;;;;;;16.07;12.53;;;7.30;99.90;;;;;;4985370;28;20216;-85
2022/03/22 06:35:21;;;;;;;14.93;10.87;;;7.80;99.90;;;;;;4999567;28;20223;-89
2022/03/22 06:37:49;;;;;;;21.73;12.57;;;8.20;99.90;;;;;;4996336;28;20736;-86
2022/03/22 06:40:17;;;;;;;22.90;12.77;;;8.80;99.90;;;;;;5016591;28;20215;-87
2022/03/22 06:42:43;;;;;;;19.47;13.73;;;9.60;99.90;;;;;;5001134;28;20223;-86
2022/03/22 06:45:12;;;;;;;26.07;15.13;;;10.30;99.90;;;;;;5002843;28;20211;-87
2022/03/22 06:47:39;;;;;;;19.77;12.40;;;11.00;99.90;;;;;;4998842;28;20231;-86
2022/03/22 06:50:10;;;;;;;17.30;12.07;;;11.50;99.90;;;;;;4998514;28;20196;-88
2022/03/22 06:52:36;;;;;;;16.50;11.90;;;12.10;99.90;;;;;;4986562;28;20264;-84
2022/03/22 06:55:03;;;;;;;19.83;12.70;;;11.90;99.90;;;;;;4999783;28;20641;-86
2022/03/22 06:57:31;;;;;;;15.53;9.00;;;11.10;99.90;;;;;;4999709;28;20801;-85
2022/03/22 07:00:00;;;;;;;29.30;13.47;;;10.70;99.90;;;;;;4999118;28;20226;-85
2022/03/22 07:02:27;;;;;;;25.67;14.57;;;10.90;99.90;;;;;;4998634;28;20231;-85
2022/03/22 07:04:52;;;;;;;20.37;11.30;;;11.30;99.90;;;;;;5002049;28;20736;-85
2022/03/22 07:07:19;;;;;;;21.13;11.87;;;11.60;99.90;;;;;;5000711;28;20231;-85
2022/03/22 07:09:45;;;;;;;20.97;13.63;;;11.60;99.90;;;;;;4984003;28;20254;-85
2022/03/22 07:12:13;;;;;;;18.27;13.17;;;11.30;99.90;;;;;;4982335;28;20227;-83
2022/03/22 07:14:40;;;;;;;20.70;13.57;;;10.90;99.90;;;;;;4983568;28;20215;-87
2022/03/22 07:17:10;;;;;;;16.93;12.37;;;10.50;99.90;;;;;;4970745;28;20311;-86
2022/03/22 07:19:37;;;;;;;24.97;14.23;;;10.10;99.90;;;;;;4972232;28;20542;-85
2022/03/22 07:22:05;;;;;;;19.20;13.57;;;9.80;99.90;;;;;;4971244;28;20216;-87
2022/03/22 07:24:32;;;;;;;17.00;12.30;;;9.70;99.90;;;;;;4954049;28;20323;-86
2022/03/22 07:26:58;;;;;;;25.63;15.37;;;9.60;99.90;;;;;;4937237;28;20224;-84
2022/03/22 07:29:24;;;;;;;16.30;10.90;;;9.50;99.90;;;;;;4946719;28;20674;-85
2022/03/22 07:31:49;;;;;;;20.77;13.10;;;9.50;99.90;;;;;;4948774;28;20197;-88
2022/03/22 07:34:19;;;;;;;19.93;11.93;;;9.40;99.90;;;;;;4940539;28;20275;-88
2022/03/22 07:36:46;;;;;;;26.20;14.37;;;9.40;99.90;;;;;;4969976;28;20226;-88
2022/03/22 07:39:14;;;;;;;16.80;12.33;;;9.40;99.90;;;;;;4954395;28;20224;-88
2022/03/22 07:41:43;;;;;;;23.43;13.13;;;9.60;99.90;;;;;;4946231;28;20251;-89
2022/03/22 07:44:12;;;;;;;19.43;14.53;;;10.10;99.90;;;;;;4954102;28;20207;-87
2022/03/22 07:46:43;;;;;;;25.40;12.13;;;10.80;99.90;;;;;;4948184;28;20308;-88
2022/03/22 07:54:39;;;;;;;21.87;12.33;;;11.50;99.90;;;;;;4962940;28;20239;-89
2022/03/22 07:57:07;;;;;;;28.37;15.37;;;11.60;99.90;;;;;;4946149;28;20231;-87
2022/03/22 07:59:33;;;;;;;20.50;12.87;;;11.70;99.90;;;;;;4937316;28;20229;-88
2022/03/22 08:02:00;;;;;;;28.07;12.73;;;11.60;99.90;;;;;;4953760;28;20235;-87
2022/03/22 08:04:26;;;;;;;21.00;12.57;;;11.50;99.90;;;;;;4947518;28;20184;-87
2022/03/22 08:06:52;;;;;;;22.73;12.67;;;11.50;99.90;;;;;;4937320;28;20229;-88
2022/03/22 08:09:18;;;;;;;24.80;14.07;;;11.60;99.90;;;;;;4954288;28;20220;-87
2022/03/22 08:11:44;;;;;;;27.07;14.57;;;11.90;99.90;;;;;;4945700;28;20686;-87
2022/03/22 08:14:10;;;;;;;22.03;13.87;;;11.70;99.90;;;;;;4953470;28;20225;-87
2022/03/22 08:16:36;;;;;;;18.47;14.50;;;11.50;99.90;;;;;;4952111;28;20310;-88
2022/03/22 08:19:06;;;;;;;24.27;12.93;;;11.60;99.90;;;;;;4981248;28;20237;-87
2022/03/22 08:21:33;;;;;;;20.57;13.80;;;11.50;99.90;;;;;;4984006;28;20229;-87
2022/03/22 08:23:59;;;;;;;24.47;14.47;;;11.40;99.90;;;;;;4982018;28;20701;-87
2022/03/22 08:26:25;;;;;;;25.17;14.07;;;11.60;99.90;;;;;;4983388;28;20234;-88
2022/03/22 08:28:51;;;;;;;25.70;13.40;;;11.90;99.90;;;;;;4990108;28;20192;-86
2022/03/22 08:31:17;;;;;;;28.60;15.23;;;12.10;99.90;;;;;;4997877;28;20242;-89
2022/03/22 08:33:43;;;;;;;27.73;16.77;;;12.10;99.90;;;;;;4980024;28;20695;-87
2022/03/22 08:36:08;;;;;;;23.63;13.93;;;12.30;99.90;;;;;;4979250;28;20715;-87
2022/03/22 08:38:35;;;;;;;27.57;13.47;;;12.40;99.90;;;;;;4981901;28;20254;-87
2022/03/22 08:41:01;;;;;;;20.20;12.23;;;12.10;99.90;;;;;;4984317;28;20430;-88
2022/03/22 08:43:27;;;;;;;27.57;13.40;;;12.20;99.90;;;;;;4982357;28;20196;-87
2022/03/22 08:45:54;;;;;;;24.33;15.50;;;12.20;99.90;;;;;;4996918;28;20212;-87
2022/03/22 08:48:21;;;;;;;22.97;14.80;;;12.20;99.90;;;;;;5000030;28;20254;-87
2022/03/22 08:50:49;;;;;;;21.53;15.30;;;12.40;99.90;;;;;;4998961;28;20289;-88
2022/03/22 08:53:16;;;;;;;21.90;14.30;;;12.70;99.90;;;;;;4998737;28;20314;-88
2022/03/22 08:55:47;;;;;;;35.60;16.30;;;12.90;99.90;;;;;;4990531;28;20562;-87
2022/03/22 08:58:13;;;;;;;29.87;14.70;;;13.60;99.90;;;;;;4980626;28;20697;-87
2022/03/22 09:00:40;;;;;;;26.10;14.90;;;15.00;99.90;;;;;;4996546;28;20242;-90
2022/03/22 09:03:06;;;;;;;27.63;16.23;;;15.50;99.90;;;;;;4981421;28;20680;-89
2022/03/22 09:08:17;;;;;;;25.93;16.07;;;16.80;99.90;;;;;;5000067;28;20226;-88
2022/03/22 09:10:46;;;;;;;28.63;13.73;;;17.80;99.90;;;;;;4984421;28;20610;-89
2022/03/22 09:13:12;;;;;;;30.10;14.57;;;17.80;99.90;;;;;;4981846;28;20223;-89
2022/03/22 09:15:39;;;;;;;25.53;14.93;;;17.40;99.90;;;;;;4982147;28;20750;-89
2022/03/22 09:18:13;;;;;;;24.80;14.77;;;17.00;99.90;;;;;;4998044;28;20239;-88
2022/03/22 09:20:40;;;;;;;26.33;14.70;;;16.20;99.90;;;;;;4998866;28;20269;-89
2022/03/22 09:23:08;;;;;;;27.30;15.23;;;16.00;99.90;;;;;;5014233;28;20223;-88
2022/03/22 09:25:34;;;;;;;26.70;15.20;;;16.30;99.90;;;;;;4996416;28;20198;-89
2022/03/22 09:28:00;;;;;;;24.47;14.50;;;16.40;99.90;;;;;;4999940;28;20712;-88
2022/03/22 09:30:27;;;;;;;24.80;15.17;;;16.50;99.90;;;;;;4990545;28;20226;-89
2022/03/22 09:32:53;;;;;;;30.97;14.13;;;17.00;99.90;;;;;;4994522;28;20215;-91
2022/03/22 09:35:20;;;;;;;25.97;14.30;;;17.20;99.90;;;;;;4982874;28;20219;-89
2022/03/22 09:37:48;;;;;;;23.57;15.13;;;17.20;99.90;;;;;;4995236;28;20230;-89
2022/03/22 09:40:16;;;;;;;30.53;16.67;;;18.00;99.90;;;;;;4998671;28;20230;-89
2022/03/22 09:42:42;;;;;;;26.17;14.37;;;19.20;99.90;;;;;;4982573;28;20210;-89
2022/03/22 09:45:10;;;;;;;29.10;16.70;;;19.50;99.90;;;;;;4997609;28;20265;-90
2022/03/22 09:47:37;;;;;;;28.90;13.97;;;19.20;99.90;;;;;;4999530;28;20223;-89
2022/03/22 09:50:10;;;;;;;21.77;15.17;;;19.40;99.90;;;;;;4990501;28;20633;-90
2022/03/22 09:52:38;;;;;;;27.80;15.43;;;19.80;99.90;;;;;;4999103;28;20647;-90
2022/03/22 09:55:06;;;;;;;25.73;14.10;;;20.50;99.90;;;;;;4981007;28;20352;-90
2022/03/22 09:57:32;;;;;;;30.13;16.97;;;21.30;99.90;;;;;;4997278;28;20226;-89
2022/03/22 09:59:58;;;;;;;27.67;16.17;;;22.10;99.90;;;;;;4983257;28;20231;-90
2022/03/22 10:02:29;;;;;;;28.73;16.20;;;22.20;99.90;;;;;;4979616;28;20689;-89
2022/03/22 10:04:54;;;;;;;25.37;15.30;;;22.70;99.90;;;;;;4999367;28;20235;-89
2022/03/22 10:07:23;;;;;;;27.90;16.77;;;23.20;99.90;;;;;;4997881;28;20285;-91
2022/03/22 10:09:59;;;;;;;30.37;16.10;;;23.20;99.90;;;;;;4979893;28;20222;-88
2022/03/22 10:12:30;;;;;;;25.93;15.33;;;23.60;99.90;;;;;;5004560;28;20211;-89
2022/03/22 10:15:13;;;;;;;32.07;16.63;;;23.70;99.90;;;;;;4999030;28;20215;-89
2022/03/22 10:17:40;;;;;;;30.33;15.67;;;23.50;99.90;;;;;;4997762;28;20255;-90
2022/03/22 10:20:08;;;;;;;28.23;16.13;;;23.60;99.90;;;;;;4996852;28;20188;-88
2022/03/22 10:22:35;;;;;;;28.80;16.03;;;23.30;99.90;;;;;;4998086;28;20179;-89
2022/03/22 10:25:04;;;;;;;30.97;17.33;;;23.00;99.90;;;;;;4979546;28;20224;-89
2022/03/22 10:27:36;;;;;;;29.03;16.50;;;22.40;99.90;;;;;;4998817;28;20258;-89
2022/03/22 10:30:05;;;;;;;23.33;14.83;;;21.10;99.90;;;;;;5012900;28;20223;-90
2022/03/22 10:32:44;;;;;;;33.43;17.20;;;20.10;99.90;;;;;;4997326;28;20216;-91
2022/03/22 10:35:14;;;;;;;28.10;16.90;;;20.30;99.90;;;;;;5012808;28;20215;-89
2022/03/22 10:37:45;;;;;;;30.07;16.87;;;19.30;99.90;;;;;;4997207;28;20204;-90
2022/03/22 10:40:24;;;;;;;27.93;17.30;;;19.20;99.90;;;;;;4979727;28;20224;-89
2022/03/22 10:42:51;;;;;;;28.73;15.77;;;18.50;99.90;;;;;;4998868;28;20583;-90
2022/03/22 10:45:17;;;;;;;29.10;17.77;;;18.20;99.90;;;;;;4996434;28;20230;-90
2022/03/22 10:47:44;;;;;;;29.60;17.73;;;17.80;99.90;;;;;;4980951;28;20238;-89
2022/03/22 10:50:10;;;;;;;30.00;16.73;;;18.00;99.90;;;;;;5001447;28;21380;-89
2022/03/22 10:52:56;;;;;;;26.40;17.43;;;18.20;99.90;;;;;;5002387;28;20601;-90
2022/03/22 10:55:24;;;;;;;30.03;16.10;;;18.60;99.90;;;;;;5003111;28;20254;-90
2022/03/22 10:57:59;;;;;;;28.43;14.63;;;18.80;99.90;;;;;;4998377;28;20275;-89
2022/03/22 11:00:26;;;;;;;30.97;16.13;;;18.70;99.90;;;;;;5000395;28;20214;-90
2022/03/22 11:02:55;;;;;;;35.90;15.90;;;19.00;99.90;;;;;;4984928;28;20231;-90
2022/03/22 11:05:23;;;;;;;29.33;16.67;;;19.20;99.90;;;;;;5001472;28;20219;-90
2022/03/22 11:07:53;;;;;;;25.53;16.00;;;19.20;99.90;;;;;;5000004;28;20273;-90
2022/03/22 11:10:25;;;;;;;27.97;15.70;;;19.40;99.90;;;;;;4998196;28;20227;-89
2022/03/22 11:12:52;;;;;;;31.53;16.93;;;19.40;99.90;;;;;;4984444;28;20225;-89
2022/03/22 11:15:19;;;;;;;30.43;16.27;;;19.30;99.90;;;;;;4999424;28;20220;-89
2022/03/22 11:17:48;;;;;;;30.43;17.27;;;18.90;99.90;;;;;;4999068;28;20231;-90
2022/03/22 11:20:15;;;;;;;25.83;15.40;;;19.30;99.90;;;;;;4999840;28;20637;-90
2022/03/22 11:22:54;;;;;;;26.30;14.17;;;19.70;99.90;;;;;;4983254;28;20734;-89
2022/03/22 11:25:30;;;;;;;24.57;16.07;;;19.40;99.90;;;;;;5002035;28;20215;-90
2022/03/22 11:27:59;;;;;;;25.63;15.77;;;19.10;99.90;;;;;;5000779;28;20734;-88
2022/03/22 11:30:27;;;;;;;26.47;14.47;;;19.40;99.90;;;;;;5006406;28;20228;-90
2022/03/22 11:36:00;;;;;;;31.33;16.47;;;19.80;99.90;;;;;;4997786;28;20696;-92
2022/03/22 11:38:44;;;;;;;28.27;15.20;;;19.90;99.90;;;;;;5008016;28;20286;-90
2022/03/22 11:44:18;;;;;;;31.20;15.63;;;20.20;99.90;;;;;;5000142;28;20207;-90
2022/03/22 11:46:46;;;;;;;25.83;14.77;;;20.10;99.90;;;;;;5017010;28;20266;-90
2022/03/22 11:49:21;;;;;;;27.33;14.93;;;20.10;99.90;;;;;;4997254;28;20219;-90
2022/03/22 11:51:58;;;;;;;31.50;15.20;;;20.10;99.90;;;;;;4997439;28;20303;-90
2022/03/22 11:54:31;;;;;;;23.40;14.37;;;20.30;99.90;;;;;;4982116;28;20223;-89
2022/03/22 11:56:59;;;;;;;25.97;14.50;;;19.80;99.90;;;;;;4984231;28;20239;-92
2022/03/22 11:59:25;;;;;;;21.57;13.67;;;19.40;99.90;;;;;;5014326;28;20216;-89
2022/03/22 12:01:59;;;;;;;24.10;15.40;;;19.70;99.90;;;;;;4996746;28;20200;-91
2022/03/22 12:04:54;;;;;;;23.73;13.83;;;19.70;99.90;;;;;;5007353;28;20646;-91
2022/03/22 12:07:24;;;;;;;24.70;13.90;;;19.30;99.90;;;;;;4997997;28;20231;-89
2022/03/22 12:09:49;;;;;;;21.27;12.97;;;19.20;99.90;;;;;;4999031;28;20716;-91
2022/03/22 12:12:16;;;;;;;23.73;13.37;;;18.70;99.90;;;;;;4981068;28;20222;-90
2022/03/22 12:14:45;;;;;;;25.47;14.87;;;18.80;99.90;;;;;;4997415;28;20207;-90
2022/03/22 12:17:12;;;;;;;26.23;14.30;;;19.00;99.90;;;;;;4982377;28;20259;-90
2022/03/22 12:19:38;;;;;;;22.20;14.60;;;19.10;99.90;;;;;;5014634;28;20183;-91
2022/03/22 12:22:08;;;;;;;30.63;14.77;;;19.20;99.90;;;;;;4982545;28;20223;-91
2022/03/22 12:24:35;;;;;;;20.43;12.63;;;19.20;99.90;;;;;;4997800;28;20211;-91
2022/03/22 12:27:09;;;;;;;25.90;13.33;;;19.50;99.90;;;;;;4983018;28;20633;-90
2022/03/22 12:29:43;;;;;;;25.93;13.93;;;19.30;99.90;;;;;;5015242;28;20214;-91
2022/03/22 12:32:27;;;;;;;21.00;11.97;;;19.50;99.90;;;;;;4997858;28;20178;-91
2022/03/22 12:34:54;;;;;;;19.03;11.63;;;19.30;99.90;;;;;;4980959;28;20597;-91
2022/03/22 12:37:20;;;;;;;22.13;11.33;;;19.20;99.90;;;;;;4981138;28;20645;-91
2022/03/22 12:39:47;;;;;;;23.43;12.27;;;19.00;99.90;;;;;;4997583;28;20220;-91
2022/03/22 12:42:18;;;;;;;22.67;12.70;;;19.00;99.90;;;;;;5001551;28;20251;-93
2022/03/22 12:44:46;;;;;;;23.03;13.27;;;19.20;99.90;;;;;;5002418;28;20227;-91
2022/03/22 12:47:12;;;;;;;21.97;10.80;;;19.30;99.90;;;;;;5015291;28;20249;-93
2022/03/22 12:49:39;;;;;;;24.43;11.67;;;19.20;99.90;;;;;;4998931;28;20275;-92
2022/03/22 12:52:07;;;;;;;21.73;11.77;;;19.20;99.90;;;;;;4997364;28;20578;-92
2022/03/22 12:54:41;;;;;;;16.67;10.37;;;19.10;99.90;;;;;;4998187;28;20787;-93
2022/03/22 12:57:17;;;;;;;17.30;9.50;;;19.20;99.90;;;;;;4998015;28;20212;-93
2022/03/22 12:59:43;;;;;;;19.17;11.10;;;19.10;99.90;;;;;;4980295;28;20253;-93
2022/03/22 13:02:10;;;;;;;20.93;11.00;;;19.20;99.90;;;;;;4997892;28;20180;-93
2022/03/22 13:04:48;;;;;;;14.87;8.90;;;19.20;99.90;;;;;;4996788;28;20180;-92
2022/03/22 13:07:23;;;;;;;19.23;10.03;;;19.30;99.90;;;;;;4983476;28;20216;-92
2022/03/22 13:12:35;;;;;;;25.03;10.10;;;19.20;99.90;;;;;;4986184;28;20305;-91
2022/03/22 13:15:11;;;;;;;18.97;9.23;;;19.10;99.90;;;;;;4998764;28;20782;-92
2022/03/22 13:17:45;;;;;;;20.53;10.67;;;19.30;99.90;;;;;;4998267;28;20314;-91
2022/03/22 13:20:24;;;;;;;16.07;9.57;;;19.20;99.90;;;;;;4998010;28;20220;-92